Time;durP1;ratioP1;P1;durP2;ratioP2;P2;SDS_P1;SDS_P2;PMS_P1;PMS_P2;Temp;Humidity;BMP_temperature;BMP_pressure;BME280_temperature;BME280_humidity;BME280_pressure;Samples;Min_cycle;Max_cycle;Signal;HPM_P1;HPM_P2
2024/03/06 00:01:06;;;;;;;36.70;18.60;;;;;;;2.26;100.00;100974.90;214870;1285;140162;-86
2024/03/06 00:06:07;;;;;;;44.90;21.90;;;;;;;2.19;100.00;100985.01;215096;1284;139099;-86
2024/03/06 00:11:07;;;;;;;37.80;19.90;;;;;;;2.14;100.00;100986.75;214316;1286;140115;-86
2024/03/06 00:16:08;;;;;;;38.40;21.00;;;;;;;2.11;100.00;100985.74;214920;1284;139639;-86
2024/03/06 00:21:09;;;;;;;34.10;18.90;;;;;;;2.09;100.00;100990.64;214793;1284;140211;-86
2024/03/06 00:26:10;;;;;;;30.40;17.90;;;;;;;2.03;100.00;100994.36;215212;1285;139362;-85
2024/03/06 00:31:10;;;;;;;30.00;16.80;;;;;;;1.95;100.00;101001.70;215646;1287;140319;-87
2024/03/06 00:36:10;;;;;;;39.90;19.80;;;;;;;1.90;100.00;101007.95;214780;1285;139196;-86
2024/03/06 00:41:11;;;;;;;42.10;21.10;;;;;;;1.92;100.00;101011.51;215162;1286;139883;-87
2024/03/06 00:46:11;;;;;;;41.10;20.70;;;;;;;1.91;100.00;101015.11;215602;1286;140354;-87
2024/03/06 00:51:12;;;;;;;33.60;18.30;;;;;;;1.90;100.00;101018.96;215108;1285;141328;-87
2024/03/06 00:56:12;;;;;;;31.10;16.70;;;;;;;1.88;100.00;101025.31;215389;1285;139391;-86
2024/03/06 01:01:12;;;;;;;28.50;15.80;;;;;;;1.88;100.00;101029.23;215686;1285;140312;-87
2024/03/06 01:06:13;;;;;;;28.90;15.10;;;;;;;1.92;100.00;101030.21;216087;1284;138843;-86
2024/03/06 01:11:14;;;;;;;29.50;16.10;;;;;;;1.96;100.00;101037.34;216133;1284;140246;-85
2024/03/06 01:16:15;;;;;;;30.00;15.10;;;;;;;2.00;100.00;101037.32;215271;1285;139233;-85
2024/03/06 01:21:15;;;;;;;28.30;16.60;;;;;;;2.04;100.00;101041.45;214901;1285;140469;-86
2024/03/06 01:26:16;;;;;;;29.30;15.90;;;;;;;2.08;100.00;101037.45;214762;1285;139696;-86
2024/03/06 01:31:17;;;;;;;112.50;37.00;;;;;;;2.13;100.00;101037.66;215869;1286;153595;-87
2024/03/06 01:36:17;;;;;;;184.70;50.10;;;;;;;2.20;100.00;101043.21;214486;1285;140751;-86
2024/03/06 01:41:18;;;;;;;56.80;24.80;;;;;;;2.26;100.00;101044.41;215016;1285;139419;-87
2024/03/06 01:46:18;;;;;;;51.10;23.50;;;;;;;2.33;100.00;101054.33;214773;1284;140407;-87
2024/03/06 01:51:19;;;;;;;54.70;23.60;;;;;;;2.38;100.00;101055.99;214638;1285;139067;-87
2024/03/06 01:56:19;;;;;;;49.80;21.60;;;;;;;2.44;100.00;101057.79;214561;1285;140450;-86
2024/03/06 02:01:21;;;;;;;40.80;20.10;;;;;;;2.51;100.00;101057.89;215192;1284;98872;-87
2024/03/06 02:06:22;;;;;;;33.40;17.70;;;;;;;2.57;100.00;101053.61;214699;1285;139077;-86
2024/03/06 02:11:23;;;;;;;33.00;16.50;;;;;;;2.62;100.00;101056.81;215043;1284;139356;-87
2024/03/06 02:16:23;;;;;;;26.50;13.80;;;;;;;2.65;100.00;101056.90;214562;1284;141167;-87
2024/03/06 02:21:24;;;;;;;27.90;14.80;;;;;;;2.67;100.00;101059.80;214644;1285;139204;-87
2024/03/06 02:26:25;;;;;;;29.10;14.80;;;;;;;2.62;100.00;101066.86;214595;1287;141149;-87
2024/03/06 02:31:25;;;;;;;25.10;13.30;;;;;;;2.57;100.00;101064.40;215187;1286;98048;-87
2024/03/06 02:36:25;;;;;;;25.30;13.60;;;;;;;2.50;100.00;101068.14;214439;1288;139986;-86
2024/03/06 02:41:26;;;;;;;25.80;13.30;;;;;;;2.42;100.00;101070.06;214737;1286;139013;-87
2024/03/06 02:46:26;;;;;;;26.90;13.70;;;;;;;2.28;100.00;101065.40;214204;1285;140205;-86
2024/03/06 02:51:26;;;;;;;24.60;13.60;;;;;;;2.15;100.00;101071.61;214960;1284;139110;-86
2024/03/06 02:56:27;;;;;;;26.50;14.20;;;;;;;2.02;100.00;101069.61;214377;1285;140907;-87
2024/03/06 03:01:28;;;;;;;24.60;13.20;;;;;;;1.92;100.00;101071.85;214967;1285;99416;-87
2024/03/06 03:06:29;;;;;;;32.30;16.00;;;;;;;1.79;100.00;101076.34;214529;1285;140253;-86
2024/03/06 03:11:30;;;;;;;50.40;20.70;;;;;;;1.69;100.00;101081.73;214815;1285;139142;-86
2024/03/06 03:16:32;;;;;;;87.30;30.80;;;;;;;1.56;100.00;101081.92;214469;1284;140394;-86
2024/03/06 03:21:32;;;;;;;45.40;21.00;;;;;;;1.42;100.00;101086.98;214591;1286;139242;-86
2024/03/06 03:26:33;;;;;;;34.50;16.40;;;;;;;1.31;100.00;101086.44;214163;1286;141887;-86
2024/03/06 03:31:33;;;;;;;39.70;18.80;;;;;;;1.20;100.00;101088.48;214771;1286;98864;-86
2024/03/06 03:36:34;;;;;;;33.70;17.90;;;;;;;1.12;100.00;101089.49;215737;1285;140630;-87
2024/03/06 03:41:34;;;;;;;40.30;17.20;;;;;;;0.99;100.00;101094.82;214556;1287;139042;-87
2024/03/06 03:46:35;;;;;;;33.50;18.70;;;;;;;0.86;100.00;101105.21;214233;1284;141050;-87
2024/03/06 03:51:37;;;;;;;36.50;16.50;;;;;;;0.82;100.00;101104.38;214965;1284;139257;-87
2024/03/06 03:56:37;;;;;;;31.00;15.50;;;;;;;0.73;100.00;101103.23;214816;1284;140670;-87
2024/03/06 04:01:38;;;;;;;29.80;15.20;;;;;;;0.64;100.00;101103.21;214945;1285;97999;-86
2024/03/06 04:06:38;;;;;;;29.90;16.10;;;;;;;0.56;100.00;101103.98;214623;1284;139897;-87
2024/03/06 04:11:38;;;;;;;33.80;15.60;;;;;;;0.46;100.00;101097.05;214937;1284;139397;-87
2024/03/06 04:16:39;;;;;;;25.10;14.00;;;;;;;0.38;100.00;101098.73;214434;1285;140368;-87
2024/03/06 04:21:42;;;;;;;28.50;15.70;;;;;;;0.33;100.00;101108.17;214759;1284;139499;-88
2024/03/06 04:26:43;;;;;;;37.30;18.10;;;;;;;0.32;100.00;101111.50;214375;1288;140044;-88
2024/03/06 04:31:43;;;;;;;50.60;22.00;;;;;;;0.33;100.00;101116.04;215144;1285;97942;-87
2024/03/06 04:36:44;;;;;;;50.10;22.00;;;;;;;0.35;100.00;101124.61;215922;1284;139359;-87
2024/03/06 04:41:44;;;;;;;41.10;21.90;;;;;;;0.34;100.00;101121.16;216016;1284;139858;-87
2024/03/06 04:46:44;;;;;;;37.90;19.60;;;;;;;0.33;100.00;101124.20;215743;1284;141360;-87
2024/03/06 04:51:45;;;;;;;37.80;18.90;;;;;;;0.33;100.00;101121.81;217486;1285;139771;-87
2024/03/06 04:56:45;;;;;;;32.30;17.20;;;;;;;0.32;100.00;101126.38;214785;1285;140661;-87
2024/03/06 05:01:46;;;;;;;34.90;17.20;;;;;;;0.30;100.00;101131.23;216075;1285;97657;-87
2024/03/06 05:06:46;;;;;;;35.60;17.30;;;;;;;0.29;100.00;101134.38;215624;1284;140250;-87
2024/03/06 05:11:50;;;;;;;28.30;16.10;;;;;;;0.26;100.00;101139.95;216030;1285;139527;-88
2024/03/06 05:16:50;;;;;;;33.60;18.30;;;;;;;0.25;100.00;101147.00;215377;1284;140113;-87
2024/03/06 05:21:51;;;;;;;31.60;17.40;;;;;;;0.25;100.00;101148.63;215727;1285;139107;-87
2024/03/06 05:26:51;;;;;;;34.60;19.00;;;;;;;0.25;100.00;101148.41;215223;1285;140446;-87
2024/03/06 05:31:52;;;;;;;35.10;18.70;;;;;;;0.27;100.00;101150.92;214508;1286;97981;-88
2024/03/06 05:36:52;;;;;;;36.90;19.40;;;;;;;0.30;100.00;101150.02;214064;1287;139904;-86
2024/03/06 05:42:03;;;;;;;44.70;23.00;;;;;;;0.35;100.00;101155.68;215397;1287;138425;-87
2024/03/06 05:47:03;;;;;;;43.00;22.80;;;;;;;0.38;100.00;101154.67;214493;1285;140465;-87
2024/03/06 05:52:04;;;;;;;43.30;21.60;;;;;;;0.45;100.00;101159.40;214918;1285;139159;-87
2024/03/06 05:57:04;;;;;;;47.70;23.90;;;;;;;0.54;100.00;101159.33;214254;1285;140252;-87
2024/03/06 06:02:05;;;;;;;60.00;25.20;;;;;;;0.62;100.00;101159.85;215015;1284;97931;-88
2024/03/06 06:07:05;;;;;;;51.70;23.60;;;;;;;0.74;100.00;101167.42;214327;1285;140258;-87
2024/03/06 06:12:05;;;;;;;51.10;25.80;;;;;;;0.87;100.00;101164.41;214866;1285;139496;-87
2024/03/06 06:17:06;;;;;;;49.80;25.70;;;;;;;1.05;100.00;101163.88;214560;1285;141121;-87
2024/03/06 06:22:06;;;;;;;46.60;24.10;;;;;;;1.20;100.00;101164.17;214869;1284;139247;-87
2024/03/06 06:27:07;;;;;;;45.00;22.80;;;;;;;1.34;100.00;101167.80;214314;1287;140788;-88
2024/03/06 06:32:07;;;;;;;48.20;24.70;;;;;;;1.49;100.00;101168.38;214303;1286;139609;-87
2024/03/06 06:37:10;;;;;;;43.70;22.60;;;;;;;1.62;100.00;101170.41;214513;1285;140748;-88
2024/03/06 06:42:11;;;;;;;43.90;22.80;;;;;;;1.74;100.00;101177.90;216084;1285;139513;-88
2024/03/06 06:47:11;;;;;;;47.70;20.80;;;;;;;1.85;100.00;101188.65;214563;1285;142128;-88
2024/03/06 06:52:12;;;;;;;38.10;18.60;;;;;;;1.97;100.00;101188.30;215199;1286;139600;-87
2024/03/06 06:57:12;;;;;;;39.00;20.60;;;;;;;2.08;100.00;101191.19;214505;1285;140712;-87
2024/03/06 07:02:13;;;;;;;42.20;21.30;;;;;;;2.20;100.00;101194.67;215217;1285;139499;-87
2024/03/06 07:07:13;;;;;;;44.30;22.50;;;;;;;2.33;100.00;101189.39;214775;1285;140248;-87
2024/03/06 07:12:14;;;;;;;45.60;21.90;;;;;;;2.47;100.00;101198.77;216467;1285;140127;-86
2024/03/06 07:17:14;;;;;;;46.60;20.70;;;;;;;2.61;100.00;101199.39;216632;1284;140800;-87
2024/03/06 07:22:14;;;;;;;42.50;21.30;;;;;;;2.75;100.00;101200.86;218906;1285;139763;-87
2024/03/06 07:27:15;;;;;;;47.60;23.20;;;;;;;2.90;100.00;101204.92;214953;1288;140839;-87
2024/03/06 07:32:15;;;;;;;52.30;26.50;;;;;;;3.07;100.00;101209.85;214824;1285;139165;-87
2024/03/06 07:37:15;;;;;;;49.60;24.50;;;;;;;3.25;100.00;101202.77;214462;1288;140648;-87
2024/03/06 07:42:17;;;;;;;53.80;24.50;;;;;;;3.43;100.00;101195.15;215359;1288;140376;-87
2024/03/06 07:47:18;;;;;;;64.40;30.20;;;;;;;3.61;100.00;101198.20;214508;1286;140773;-86
2024/03/06 07:52:18;;;;;;;54.30;25.10;;;;;;;3.80;100.00;101203.13;214444;1288;139745;-87
2024/03/06 07:57:21;;;;;;;55.90;26.40;;;;;;;4.00;100.00;101213.70;214598;1285;140508;-87
2024/03/06 08:02:21;;;;;;;53.90;25.10;;;;;;;4.18;100.00;101233.30;214927;1285;140134;-87
2024/03/06 08:07:22;;;;;;;50.40;23.60;;;;;;;4.34;100.00;101244.02;214779;1286;140729;-87
2024/03/06 08:12:22;;;;;;;53.60;24.90;;;;;;;4.48;100.00;101242.14;215162;1285;139952;-87
2024/03/06 08:17:22;;;;;;;51.20;25.40;;;;;;;4.64;100.00;101252.73;214456;1285;140452;-87
2024/03/06 08:22:23;;;;;;;49.30;24.20;;;;;;;4.77;100.00;101254.42;215195;1288;139198;-87
2024/03/06 08:27:23;;;;;;;51.60;25.30;;;;;;;4.88;100.00;101253.88;214440;1285;188053;-86
2024/03/06 08:32:24;;;;;;;52.00;24.50;;;;;;;5.06;100.00;101247.64;215135;1285;139104;-88
2024/03/06 08:37:24;;;;;;;51.80;25.60;;;;;;;5.22;100.00;101245.80;214754;1288;143253;-87
2024/03/06 08:42:24;;;;;;;49.30;23.70;;;;;;;5.33;100.00;101247.70;215088;1285;139129;-86
2024/03/06 08:47:25;;;;;;;48.10;23.50;;;;;;;5.42;100.00;101261.84;215082;1285;140639;-87
2024/03/06 08:52:25;;;;;;;53.20;25.20;;;;;;;5.49;100.00;101269.48;215186;1285;139366;-86
2024/03/06 08:57:28;;;;;;;52.30;25.30;;;;;;;5.64;100.00;101270.46;214887;1285;141977;-87
2024/03/06 09:02:28;;;;;;;56.60;25.90;;;;;;;5.78;100.00;101265.89;215121;1285;140000;-87
2024/03/06 09:07:28;;;;;;;57.00;26.00;;;;;;;5.93;100.00;101270.61;214831;1287;141418;-86
2024/03/06 09:12:29;;;;;;;53.70;27.00;;;;;;;6.06;100.00;101271.89;214635;1292;138960;-87
2024/03/06 09:17:30;;;;;;;50.10;26.80;;;;;;;6.19;100.00;101270.33;214454;1287;141496;-87
2024/03/06 09:22:30;;;;;;;56.90;27.50;;;;;;;6.31;100.00;101266.99;215014;1288;140249;-86
2024/03/06 09:27:30;;;;;;;53.60;27.40;;;;;;;6.39;100.00;101267.70;214876;1285;141006;-86
2024/03/06 09:32:31;;;;;;;57.10;27.30;;;;;;;6.45;100.00;101269.03;215425;1285;160764;-87
2024/03/06 09:37:31;;;;;;;55.80;26.90;;;;;;;6.53;100.00;101266.19;215034;1286;140738;-87
2024/03/06 09:42:32;;;;;;;51.00;27.40;;;;;;;6.62;100.00;101268.33;215335;1285;138858;-86
2024/03/06 09:47:35;;;;;;;58.40;27.60;;;;;;;6.65;100.00;101272.46;215629;1284;140341;-86
2024/03/06 09:52:36;;;;;;;52.20;26.80;;;;;;;6.68;100.00;101276.80;215253;1288;139731;-86
2024/03/06 09:57:36;;;;;;;50.50;26.30;;;;;;;6.73;100.00;101285.02;214971;1285;140421;-87
2024/03/06 10:02:54;;;;;;;52.80;26.20;;;;;;;6.76;100.00;101287.90;215226;1285;141086;-85
2024/03/06 10:07:55;;;;;;;54.70;28.10;;;;;;;6.84;100.00;101289.08;214718;1285;140568;-87
2024/03/06 10:12:57;;;;;;;53.80;27.10;;;;;;;6.91;100.00;101293.87;215116;1288;139207;-86
2024/03/06 10:18:12;;;;;;;56.30;28.40;;;;;;;6.95;100.00;101294.36;214824;1285;141454;-86
2024/03/06 10:23:14;;;;;;;53.00;27.60;;;;;;;6.99;100.00;101290.83;215150;1288;139087;-87
2024/03/06 10:28:15;;;;;;;51.90;26.90;;;;;;;6.99;100.00;101290.12;214454;1287;141068;-87
2024/03/06 10:33:20;;;;;;;53.20;28.40;;;;;;;7.03;100.00;101294.83;214971;1287;139563;-87
2024/03/06 10:38:22;;;;;;;51.30;26.80;;;;;;;7.04;100.00;101298.47;214491;1286;141281;-86
2024/03/06 10:43:23;;;;;;;56.20;27.60;;;;;;;7.07;100.00;101294.05;215046;1287;98868;-87
2024/03/06 10:48:28;;;;;;;52.80;27.20;;;;;;;7.07;100.00;101291.83;215197;1288;140597;-87
2024/03/06 10:53:31;;;;;;;52.80;26.20;;;;;;;7.10;100.00;101292.98;215391;1285;139234;-87
2024/03/06 10:58:33;;;;;;;49.30;27.30;;;;;;;7.07;100.00;101296.25;215066;1285;140194;-87
2024/03/06 11:03:35;;;;;;;52.70;25.40;;;;;;;7.05;100.00;101293.98;215299;1285;139034;-88
2024/03/06 11:08:36;;;;;;;50.60;25.20;;;;;;;7.08;100.00;101295.71;214668;1286;141659;-87
2024/03/06 11:13:40;;;;;;;49.40;26.30;;;;;;;7.09;100.00;101291.38;215072;1286;98065;-86
2024/03/06 11:18:42;;;;;;;56.20;27.50;;;;;;;7.14;100.00;101291.27;215113;1285;140243;-86
2024/03/06 11:24:11;;;;;;;57.10;29.40;;;;;;;7.17;100.00;101290.35;215071;1289;139137;-87
2024/03/06 11:29:11;;;;;;;46.00;24.40;;;;;;;7.13;100.00;101287.92;214634;1290;140418;-87
2024/03/06 11:34:15;;;;;;;51.60;27.50;;;;;;;7.09;100.00;101283.64;215088;1288;139698;-87
2024/03/06 11:39:17;;;;;;;47.90;25.60;;;;;;;7.11;100.00;101284.34;214580;1293;141797;-87
2024/03/06 11:44:23;;;;;;;45.70;25.60;;;;;;;7.12;100.00;101287.96;215401;1285;139092;-86
2024/03/06 11:49:25;;;;;;;55.10;27.10;;;;;;;7.12;100.00;101286.52;215000;1288;141094;-86
2024/03/06 11:54:27;;;;;;;48.90;24.70;;;;;;;7.15;100.00;101289.37;215627;1284;139439;-87
2024/03/06 11:59:29;;;;;;;50.10;24.90;;;;;;;7.12;100.00;101288.52;215074;1286;140541;-86
2024/03/06 12:04:31;;;;;;;48.40;25.80;;;;;;;7.12;100.00;101294.86;215319;1288;139850;-86
2024/03/06 12:09:33;;;;;;;53.40;27.40;;;;;;;7.13;100.00;101291.31;214529;1290;142019;-86
2024/03/06 12:14:36;;;;;;;50.90;25.00;;;;;;;7.16;100.00;101292.57;214898;1290;139318;-87
2024/03/06 12:19:36;;;;;;;47.10;24.80;;;;;;;7.13;100.00;101291.80;214408;1290;141343;-87
2024/03/06 12:24:37;;;;;;;48.70;24.60;;;;;;;7.14;100.00;101291.05;215102;1288;139213;-86
2024/03/06 12:29:37;;;;;;;50.40;25.90;;;;;;;7.13;100.00;101296.38;214404;1288;140421;-86
2024/03/06 12:34:38;;;;;;;52.00;26.10;;;;;;;7.14;100.00;101293.76;214868;1288;139162;-87
2024/03/06 12:39:38;;;;;;;46.50;25.60;;;;;;;7.12;100.00;101288.61;214307;1286;140407;-87
2024/03/06 12:44:39;;;;;;;53.80;27.50;;;;;;;7.14;100.00;101290.27;214668;1288;139070;-87
2024/03/06 12:49:40;;;;;;;50.60;26.00;;;;;;;7.13;100.00;101287.48;215405;1286;140913;-87
2024/03/06 12:54:40;;;;;;;53.40;26.80;;;;;;;7.16;100.00;101284.91;215954;1284;138862;-87
2024/03/06 12:59:41;;;;;;;59.40;30.40;;;;;;;7.19;100.00;101280.41;214647;1288;140122;-87
2024/03/06 13:04:41;;;;;;;52.80;27.00;;;;;;;7.21;100.00;101277.69;215007;1288;139504;-87
2024/03/06 13:09:42;;;;;;;59.00;28.80;;;;;;;7.21;100.00;101282.33;214291;1285;140350;-86
2024/03/06 13:14:42;;;;;;;54.70;26.80;;;;;;;7.18;100.00;101283.13;214702;1288;139629;-86
2024/03/06 13:19:42;;;;;;;55.10;29.20;;;;;;;7.13;100.00;101283.72;215074;1285;139788;-86
2024/03/06 13:24:43;;;;;;;60.60;29.50;;;;;;;7.08;100.00;101282.02;215517;1288;139300;-86
2024/03/06 13:29:43;;;;;;;54.60;27.70;;;;;;;7.08;100.00;101280.33;214471;1286;140402;-87
2024/03/06 13:34:43;;;;;;;53.20;28.90;;;;;;;7.12;100.00;101279.14;214907;1285;140672;-86
2024/03/06 13:39:44;;;;;;;60.30;31.10;;;;;;;7.12;100.00;101280.46;214681;1284;141242;-87
2024/03/06 13:44:44;;;;;;;57.80;29.60;;;;;;;7.11;100.00;101282.09;215175;1286;139063;-86
2024/03/06 13:49:45;;;;;;;60.30;31.30;;;;;;;7.09;100.00;101286.00;214804;1288;141096;-86
2024/03/06 13:54:47;;;;;;;68.20;34.00;;;;;;;7.01;100.00;101289.69;216628;1285;139415;-86
2024/03/06 13:59:48;;;;;;;69.70;34.40;;;;;;;7.01;100.00;101291.36;216243;1288;140646;-86
2024/03/06 14:04:48;;;;;;;73.90;36.40;;;;;;;6.99;100.00;101295.91;216499;1288;139885;-86
2024/03/06 14:09:50;;;;;;;85.80;40.00;;;;;;;6.99;100.00;101295.14;215595;1286;140645;-86
2024/03/06 14:14:51;;;;;;;81.00;36.80;;;;;;;6.91;100.00;101293.88;215634;1288;139497;-87
2024/03/06 14:19:51;;;;;;;81.20;35.80;;;;;;;6.87;100.00;101295.61;214600;1288;139999;-86
2024/03/06 14:24:51;;;;;;;75.00;34.20;;;;;;;6.82;100.00;101299.56;215226;1285;139557;-87
2024/03/06 14:29:54;;;;;;;79.60;34.20;;;;;;;6.73;100.00;101301.61;214941;1286;139931;-87
2024/03/06 14:34:54;;;;;;;66.60;30.90;;;;;;;6.66;100.00;101299.84;215198;1287;139186;-87
2024/03/06 14:39:54;;;;;;;75.90;34.30;;;;;;;6.62;100.00;101295.45;214624;1288;140184;-86
2024/03/06 14:44:55;;;;;;;76.80;34.50;;;;;;;6.60;100.00;101297.39;215274;1285;140862;-86
2024/03/06 14:49:55;;;;;;;75.70;33.60;;;;;;;6.59;100.00;101301.09;214804;1285;140567;-87
2024/03/06 14:54:56;;;;;;;64.60;32.10;;;;;;;6.60;100.00;101304.83;215418;1285;139472;-86
2024/03/06 14:59:56;;;;;;;64.80;32.60;;;;;;;6.59;100.00;101304.54;215220;1285;140333;-87
2024/03/06 15:04:58;;;;;;;73.10;35.40;;;;;;;6.60;100.00;101310.74;215332;1285;139120;-87
2024/03/06 15:09:58;;;;;;;70.70;35.10;;;;;;;6.61;100.00;101312.89;214727;1285;140359;-88
2024/03/06 15:15:00;;;;;;;62.70;32.30;;;;;;;6.60;100.00;101316.77;215217;1284;139073;-86
2024/03/06 15:20:01;;;;;;;57.50;32.20;;;;;;;6.62;100.00;101319.58;214497;1286;140705;-86
2024/03/06 15:25:01;;;;;;;60.20;30.60;;;;;;;6.66;100.00;101319.31;214910;1286;140037;-87
2024/03/06 15:30:05;;;;;;;62.90;32.20;;;;;;;6.68;100.00;101325.64;214403;1286;141022;-87
2024/03/06 15:35:08;;;;;;;61.90;32.60;;;;;;;6.69;100.00;101333.66;215071;1285;139038;-87
2024/03/06 15:40:09;;;;;;;60.40;32.00;;;;;;;6.70;100.00;101338.98;214520;1285;140898;-86
2024/03/06 15:45:11;;;;;;;61.40;31.50;;;;;;;6.69;100.00;101337.10;215490;1284;139210;-87
2024/03/06 15:50:12;;;;;;;56.50;31.90;;;;;;;6.69;100.00;101339.98;214562;1285;140442;-87
2024/03/06 15:55:13;;;;;;;64.30;32.30;;;;;;;6.71;100.00;101337.70;215125;1285;97786;-87
2024/03/06 16:00:16;;;;;;;64.80;31.10;;;;;;;6.72;100.00;101344.93;215384;1284;140190;-87
2024/03/06 16:05:16;;;;;;;59.40;29.60;;;;;;;6.71;100.00;101345.52;214966;1285;139659;-87
2024/03/06 16:10:17;;;;;;;58.10;31.70;;;;;;;6.70;100.00;101351.02;214266;1285;140055;-86
2024/03/06 16:15:17;;;;;;;56.80;30.60;;;;;;;6.69;100.00;101352.96;215081;1288;140632;-86
2024/03/06 16:20:18;;;;;;;62.60;32.20;;;;;;;6.69;100.00;101352.31;214689;1284;140637;-86
2024/03/06 16:25:18;;;;;;;63.10;33.00;;;;;;;6.67;100.00;101359.98;215209;1286;97932;-86
2024/03/06 16:30:18;;;;;;;63.70;31.60;;;;;;;6.67;100.00;101358.11;214765;1285;140722;-86
2024/03/06 16:35:19;;;;;;;51.90;29.80;;;;;;;6.66;100.00;101360.02;215114;1284;140390;-86
2024/03/06 16:40:19;;;;;;;52.40;29.10;;;;;;;6.64;100.00;101364.21;214612;1285;140683;-87
2024/03/06 16:45:20;;;;;;;59.10;28.90;;;;;;;6.62;100.00;101367.35;215168;1285;139492;-87
2024/03/06 16:50:20;;;;;;;58.40;29.80;;;;;;;6.58;100.00;101369.21;214770;1284;140911;-87
2024/03/06 16:55:21;;;;;;;54.80;29.30;;;;;;;6.56;100.00;101374.22;215217;1285;97727;-86
2024/03/06 17:00:23;;;;;;;48.20;28.20;;;;;;;6.55;100.00;101383.55;215506;1285;140056;-87
2024/03/06 17:05:23;;;;;;;56.40;26.60;;;;;;;6.53;100.00;101387.03;215160;1288;139296;-86
2024/03/06 17:10:25;;;;;;;51.30;27.80;;;;;;;6.49;100.00;101391.18;214344;1285;140655;-87
2024/03/06 17:15:25;;;;;;;52.50;26.40;;;;;;;6.48;100.00;101398.14;214765;1286;139036;-88
2024/03/06 17:20:26;;;;;;;54.20;28.40;;;;;;;6.48;100.00;101401.97;214736;1286;140129;-88
2024/03/06 17:25:26;;;;;;;48.10;27.60;;;;;;;6.46;100.00;101403.23;215104;1285;97964;-88
2024/03/06 17:30:27;;;;;;;56.40;29.20;;;;;;;6.46;100.00;101405.65;214557;1284;140202;-88
2024/03/06 17:35:27;;;;;;;52.90;28.30;;;;;;;6.45;100.00;101411.25;214778;1284;139795;-87
2024/03/06 17:40:27;;;;;;;47.40;26.50;;;;;;;6.44;100.00;101413.80;214077;1286;140624;-87
2024/03/06 17:45:29;;;;;;;53.80;30.30;;;;;;;6.44;100.00;101414.02;214368;1286;140701;-87
2024/03/06 17:50:32;;;;;;;53.90;28.60;;;;;;;6.42;100.00;101416.82;214149;1284;140178;-88
2024/03/06 17:55:33;;;;;;;51.10;28.90;;;;;;;6.43;100.00;101416.69;215282;1285;99365;-88
2024/03/06 18:00:34;;;;;;;53.80;29.40;;;;;;;6.42;100.00;101424.92;215243;1285;140854;-87
2024/03/06 18:05:34;;;;;;;51.70;28.30;;;;;;;6.40;100.00;101426.41;214998;1288;139999;-87
2024/03/06 18:10:35;;;;;;;44.80;27.90;;;;;;;6.37;100.00;101429.39;213846;1287;140557;-87
2024/03/06 18:15:35;;;;;;;49.70;28.60;;;;;;;6.30;100.00;101436.65;214725;1285;139678;-86
2024/03/06 18:20:37;;;;;;;53.80;29.30;;;;;;;6.18;100.00;101434.42;214472;1284;140926;-85
2024/03/06 18:25:38;;;;;;;55.80;31.20;;;;;;;6.05;100.00;101441.56;215251;1284;99286;-89
2024/03/06 18:30:38;;;;;;;50.70;29.20;;;;;;;5.89;100.00;101444.56;213926;1286;140121;-86
2024/03/06 18:35:38;;;;;;;50.70;28.60;;;;;;;5.76;100.00;101445.72;214730;1285;139408;-87
2024/03/06 18:40:39;;;;;;;50.80;28.20;;;;;;;5.63;100.00;101447.20;214992;1284;140439;-86
2024/03/06 18:45:40;;;;;;;47.40;25.10;;;;;;;5.53;100.00;101443.14;215623;1285;140297;-86
2024/03/06 18:50:40;;;;;;;48.20;25.90;;;;;;;5.42;100.00;101441.55;214985;1285;142590;-86
2024/03/06 18:55:40;;;;;;;49.30;25.60;;;;;;;5.33;100.00;101444.08;215198;1288;96623;-86
2024/03/06 19:00:41;;;;;;;49.50;25.90;;;;;;;5.21;100.00;101445.77;214970;1285;140931;-86
2024/03/06 19:05:41;;;;;;;49.60;27.00;;;;;;;5.11;100.00;101446.65;215017;1285;138833;-87
2024/03/06 19:10:41;;;;;;;42.20;23.30;;;;;;;5.01;100.00;101450.98;214404;1285;140342;-86
2024/03/06 19:15:42;;;;;;;45.20;25.50;;;;;;;4.91;100.00;101453.25;215319;1285;139283;-87
2024/03/06 19:20:42;;;;;;;49.50;28.10;;;;;;;4.85;100.00;101460.25;214928;1283;141188;-87
2024/03/06 19:25:43;;;;;;;51.20;29.30;;;;;;;4.78;100.00;101462.30;215501;1284;98222;-86
2024/03/06 19:30:43;;;;;;;49.30;28.60;;;;;;;4.73;100.00;101467.64;214546;1288;140466;-86
2024/03/06 19:35:44;;;;;;;57.30;31.70;;;;;;;4.67;100.00;101477.38;214950;1286;139092;-86
2024/03/06 19:40:46;;;;;;;53.50;31.40;;;;;;;4.60;100.00;101479.52;214909;1284;141772;-86
2024/03/06 19:45:46;;;;;;;51.80;30.20;;;;;;;4.55;100.00;101484.27;215603;1285;139736;-88
2024/03/06 19:50:47;;;;;;;52.20;29.10;;;;;;;4.55;100.00;101486.42;214606;1285;140299;-86
2024/03/06 19:55:48;;;;;;;50.50;26.10;;;;;;;4.54;100.00;101491.60;215728;1285;97768;-87
2024/03/06 20:00:48;;;;;;;50.10;28.00;;;;;;;4.55;100.00;101499.93;214367;1286;141518;-87
2024/03/06 20:05:49;;;;;;;46.00;25.50;;;;;;;4.54;100.00;101504.70;215068;1287;139013;-88
2024/03/06 20:10:49;;;;;;;43.40;23.20;;;;;;;4.53;100.00;101509.30;214557;1285;140528;-86
2024/03/06 20:15:50;;;;;;;46.80;23.10;;;;;;;4.51;100.00;101509.45;215245;1285;139088;-86
2024/03/06 20:20:50;;;;;;;43.00;20.90;;;;;;;4.52;100.00;101514.77;215074;1284;140073;-87
2024/03/06 20:25:51;;;;;;;38.20;21.30;;;;;;;4.50;100.00;101516.79;215391;1285;98894;-87
2024/03/06 20:30:52;;;;;;;37.10;20.50;;;;;;;4.48;100.00;101517.54;214536;1284;176951;-85
2024/03/06 20:35:53;;;;;;;36.60;19.40;;;;;;;4.44;100.00;101519.61;215265;1285;138912;-88
2024/03/06 20:40:53;;;;;;;41.20;20.30;;;;;;;4.39;100.00;101525.23;214719;1285;140122;-87
2024/03/06 20:45:54;;;;;;;38.00;19.50;;;;;;;4.35;100.00;101526.48;215351;1285;139727;-87
2024/03/06 20:50:55;;;;;;;33.70;18.60;;;;;;;4.27;100.00;101527.60;214183;1289;140083;-86
2024/03/06 20:55:56;;;;;;;43.00;20.30;;;;;;;4.18;100.00;101529.66;214953;1286;98015;-85
2024/03/06 21:00:57;;;;;;;50.80;21.70;;;;;;;4.08;100.00;101534.25;214486;1287;142440;-85
2024/03/06 21:05:57;;;;;;;39.90;18.50;;;;;;;3.97;100.00;101540.70;214990;1285;138989;-87
2024/03/06 21:10:59;;;;;;;37.70;17.50;;;;;;;3.87;100.00;101542.08;214199;1289;140192;-86
2024/03/06 21:16:00;;;;;;;36.60;17.90;;;;;;;3.79;100.00;101541.22;214794;1285;139592;-85
2024/03/06 21:21:02;;;;;;;33.00;17.50;;;;;;;3.69;100.00;101547.75;214781;1285;140033;-85
2024/03/06 21:26:03;;;;;;;34.20;16.00;;;;;;;3.56;100.00;101554.98;215768;1285;97753;-85
2024/03/06 21:31:03;;;;;;;30.70;16.20;;;;;;;3.45;100.00;101559.34;214573;1285;140179;-86
2024/03/06 21:36:04;;;;;;;34.00;16.80;;;;;;;3.37;100.00;101563.48;215170;1285;138723;-85
2024/03/06 21:41:04;;;;;;;35.30;16.60;;;;;;;3.26;100.00;101563.95;214679;1285;140611;-85
2024/03/06 21:46:05;;;;;;;35.60;17.60;;;;;;;3.17;100.00;101564.60;214885;1284;140883;-86
2024/03/06 21:51:05;;;;;;;34.10;16.50;;;;;;;3.09;100.00;101572.10;214487;1285;140589;-86
2024/03/06 21:56:11;;;;;;;37.90;18.80;;;;;;;3.01;100.00;101570.45;215224;1285;99292;-86
2024/03/06 22:01:12;;;;;;;;;;;;;;;2.90;100.00;101571.36;215134;1285;139971;-86
2024/03/06 22:06:13;;;;;;;65.20;27.50;;;;;;;2.76;100.00;101569.97;214817;1285;124977;-87
2024/03/06 22:11:13;;;;;;;72.20;31.70;;;;;;;2.64;100.00;101569.30;214511;1284;140319;-86
2024/03/06 22:16:13;;;;;;;76.30;32.80;;;;;;;2.55;100.00;101570.43;214969;1284;139078;-87